createdAt,value
2018-06-14T00:01:53.855Z,95.89
2018-06-14T00:04:24.856Z,95.64
2018-06-14T00:06:57.058Z,95.69
2018-06-14T00:09:29.209Z,95.49
2018-06-14T00:12:01.014Z,95.60
2018-06-14T00:14:32.112Z,96.00
2018-06-14T00:17:03.364Z,96.17
2018-06-14T00:19:34.528Z,96.21
2018-06-14T00:22:05.635Z,96.05
2018-06-14T00:24:37.893Z,96.39
2018-06-14T00:27:09.981Z,96.29
2018-06-14T00:29:41.483Z,96.31
2018-06-14T00:32:12.664Z,96.45
2018-06-14T00:34:43.629Z,96.88
2018-06-14T00:37:14.752Z,96.69
2018-06-14T00:39:45.734Z,96.40
2018-06-14T00:42:16.794Z,96.58
2018-06-14T00:44:48.409Z,96.41
2018-06-14T00:47:20.179Z,96.00
2018-06-14T00:49:51.467Z,96.06
2018-06-14T00:52:22.821Z,95.92
2018-06-14T00:54:54.033Z,96.17
2018-06-14T00:57:28.781Z,96.18
2018-06-14T01:00:00.488Z,96.46
2018-06-14T01:02:32.672Z,96.25
2018-06-14T01:05:04.121Z,96.54
2018-06-14T01:07:35.241Z,97.08
2018-06-14T01:10:06.417Z,96.94
2018-06-14T01:12:38.323Z,97.25
2018-06-14T01:15:09.423Z,97.22
2018-06-14T01:17:42.614Z,97.12
2018-06-14T01:20:13.880Z,97.49
2018-06-14T01:22:45.050Z,97.32
2018-06-14T01:25:16.066Z,97.51
2018-06-14T01:27:47.046Z,97.67
2018-06-14T01:30:17.979Z,97.62
2018-06-14T01:32:49.149Z,97.76
2018-06-14T01:35:21.001Z,97.84
2018-06-14T01:38:08.201Z,97.62
2018-06-14T01:40:39.360Z,98.20
2018-06-14T01:43:10.495Z,98.18
2018-06-14T01:45:42.506Z,98.33
2018-06-14T01:48:13.860Z,98.36
2018-06-14T01:50:45.145Z,98.14
2018-06-14T01:53:16.418Z,98.58
2018-06-14T01:55:47.402Z,98.50
2018-06-14T01:58:18.555Z,98.29
2018-06-14T02:00:49.718Z,98.43
2018-06-14T02:03:22.027Z,98.17
2018-06-14T02:05:53.503Z,98.59
2018-06-14T02:08:24.557Z,98.63
2018-06-14T02:11:01.837Z,98.93
2018-06-14T02:13:32.778Z,99.28
2018-06-14T02:16:04.851Z,99.30
2018-06-14T02:18:36.966Z,99.22
2018-06-14T02:21:08.383Z,99.18
2018-06-14T02:23:39.984Z,98.90
2018-06-14T02:26:11.202Z,99.06
2018-06-14T02:28:42.286Z,99.28
2018-06-14T02:31:13.447Z,99.17
2018-06-14T02:33:44.939Z,98.72
2018-06-14T02:36:17.047Z,98.62
2018-06-14T02:38:48.095Z,98.52
2018-06-14T02:41:19.232Z,97.88
2018-06-14T02:43:50.317Z,97.73
2018-06-14T02:46:21.504Z,97.85
2018-06-14T02:48:52.951Z,97.98
2018-06-14T02:51:24.447Z,98.05
2018-06-14T02:53:56.078Z,97.67
2018-06-14T02:56:26.935Z,97.79
2018-06-14T02:58:58.245Z,97.69
2018-06-14T03:01:29.967Z,97.62
2018-06-14T03:04:00.983Z,98.16
2018-06-14T03:06:32.063Z,97.91
2018-06-14T03:09:05.446Z,97.56
2018-06-14T03:11:36.409Z,97.59
2018-06-14T03:14:08.469Z,98.03
2018-06-14T03:16:39.695Z,97.93
2018-06-14T03:19:11.333Z,97.89
2018-06-14T03:21:42.574Z,97.87
2018-06-14T03:24:13.426Z,97.94
2018-06-14T03:26:44.447Z,98.03
2018-06-14T03:29:15.662Z,97.97
2018-06-14T03:31:46.753Z,97.75
2018-06-14T03:34:18.313Z,97.82
2018-06-14T03:36:49.922Z,98.09
2018-06-14T03:39:20.862Z,97.96
2018-06-14T03:41:51.803Z,97.82
2018-06-14T03:44:22.850Z,97.75
2018-06-14T03:46:53.757Z,97.88
2018-06-14T03:49:24.958Z,98.22
2018-06-14T03:51:56.727Z,97.99
2018-06-14T03:54:28.868Z,97.74
2018-06-14T03:57:00.403Z,97.74
2018-06-14T03:59:32.075Z,97.99
2018-06-14T04:02:03.473Z,97.86
2018-06-14T04:04:34.411Z,98.02
2018-06-14T04:07:05.356Z,97.85
2018-06-14T04:09:37.339Z,98.24
2018-06-14T04:12:08.503Z,98.28
2018-06-14T04:14:39.833Z,98.05
2018-06-14T04:17:11.872Z,98.48
2018-06-14T04:19:42.388Z,98.35
2018-06-14T04:22:13.624Z,98.25
2018-06-14T04:24:44.920Z,98.13
2018-06-14T04:27:17.441Z,98.37
2018-06-14T04:29:48.577Z,98.05
2018-06-14T04:32:19.922Z,98.39
2018-06-14T04:34:51.503Z,98.56
2018-06-14T04:37:22.640Z,98.28
2018-06-14T04:39:53.638Z,98.01
2018-06-14T04:42:24.725Z,97.65
2018-06-14T04:44:57.563Z,97.53
2018-06-14T04:47:29.932Z,97.34
2018-06-14T04:50:01.376Z,97.43
2018-06-14T04:52:32.580Z,96.79
2018-06-14T04:55:03.689Z,96.83
2018-06-14T04:57:34.695Z,96.13
2018-06-14T05:00:09.235Z,96.11
2018-06-14T05:02:40.503Z,94.90
2018-06-14T05:05:11.919Z,94.57
2018-06-14T05:07:44.100Z,94.48
2018-06-14T05:10:15.277Z,94.26
2018-06-14T05:12:46.172Z,94.00
2018-06-14T05:15:17.419Z,93.83
2018-06-14T05:17:49.396Z,92.60
2018-06-14T05:20:21.038Z,92.38
2018-06-14T05:22:52.015Z,92.11
2018-06-14T05:25:23.205Z,91.34
2018-06-14T05:27:55.799Z,91.19
2018-06-14T05:30:26.972Z,90.75
2018-06-14T05:32:59.098Z,90.65
2018-06-14T05:35:30.665Z,90.05
2018-06-14T05:38:01.687Z,88.96
2018-06-14T05:40:32.565Z,87.89
2018-06-14T05:43:03.678Z,88.19
2018-06-14T05:45:34.741Z,87.00
2018-06-14T05:48:05.941Z,87.10
2018-06-14T05:50:37.645Z,86.97
2018-06-14T05:53:09.393Z,87.40
2018-06-14T05:55:40.412Z,88.23
2018-06-14T05:58:11.721Z,88.94
2018-06-14T06:00:43.630Z,89.13
2018-06-14T06:03:15.712Z,88.94
2018-06-14T06:05:47.013Z,88.47
2018-06-14T06:08:20.082Z,88.01
2018-06-14T06:10:51.369Z,87.60
2018-06-14T06:13:22.542Z,86.70
2018-06-14T06:15:54.536Z,87.24
2018-06-14T06:18:25.941Z,85.82
2018-06-14T06:20:57.120Z,84.88
2018-06-14T06:23:28.740Z,79.91
2018-06-14T06:25:59.973Z,74.42
2018-06-14T06:28:31.224Z,67.75
2018-06-14T06:31:03.901Z,64.76
2018-06-14T06:33:35.306Z,63.55
2018-06-14T06:36:06.468Z,63.17
2018-06-14T06:38:37.816Z,62.25
2018-06-14T06:41:09.160Z,59.19
2018-06-14T06:43:40.628Z,59.79
2018-06-14T06:46:12.293Z,57.77
2018-06-14T06:48:44.004Z,58.09
2018-06-14T06:51:16.556Z,58.67
2018-06-14T06:53:48.256Z,58.57
2018-06-14T06:56:19.701Z,61.13
2018-06-14T06:58:50.961Z,62.52
2018-06-14T07:01:22.100Z,64.52
2018-06-14T07:03:53.307Z,65.73
2018-06-14T07:06:24.861Z,68.01
2018-06-14T07:08:56.989Z,68.34
2018-06-14T07:11:28.472Z,66.02
2018-06-14T07:13:59.686Z,62.74
2018-06-14T07:16:31.579Z,60.12
2018-06-14T07:19:03.347Z,56.40
2018-06-14T07:21:35.190Z,53.41
2018-06-14T07:24:06.799Z,49.93
2018-06-14T07:26:38.785Z,48.28
2018-06-14T07:29:12.213Z,46.24
2018-06-14T07:31:44.066Z,46.59
2018-06-14T07:34:15.933Z,47.00
2018-06-14T07:36:47.165Z,45.63
2018-06-14T07:39:18.388Z,44.81
2018-06-14T07:41:51.046Z,44.60
2018-06-14T07:44:22.735Z,42.96
2018-06-14T07:46:55.359Z,41.64
2018-06-14T07:49:27.674Z,42.16
2018-06-14T07:51:59.364Z,43.68
2018-06-14T07:54:31.500Z,44.25
2018-06-14T07:57:02.843Z,43.29
2018-06-14T07:59:34.164Z,42.08
2018-06-14T08:02:05.945Z,40.58
2018-06-14T08:04:38.604Z,41.86
2018-06-14T08:07:10.839Z,40.63
2018-06-14T08:09:41.885Z,39.74
2018-06-14T08:12:14.049Z,39.26
2018-06-14T08:14:45.346Z,39.82
2018-06-14T08:17:17.448Z,38.40
2018-06-14T08:19:48.548Z,37.91
2018-06-14T08:22:19.479Z,37.31
2018-06-14T08:24:54.282Z,36.81
2018-06-14T08:27:25.405Z,36.69
2018-06-14T08:29:59.425Z,37.22
2018-06-14T08:32:45.559Z,36.70
2018-06-14T08:35:16.714Z,39.22
2018-06-14T08:37:48.261Z,42.13
2018-06-14T08:40:22.666Z,43.60
2018-06-14T08:42:59.739Z,45.45
2018-06-14T08:45:32.136Z,46.32
2018-06-14T08:48:03.679Z,44.68
2018-06-14T08:50:35.436Z,41.80
2018-06-14T08:53:07.961Z,44.38
2018-06-14T08:55:40.569Z,43.65
2018-06-14T08:58:12.873Z,39.40
2018-06-14T09:00:44.700Z,37.51
2018-06-14T09:03:17.038Z,36.16
2018-06-14T09:05:51.326Z,37.83
2018-06-14T09:08:24.882Z,35.39
2018-06-14T09:10:55.924Z,34.86
2018-06-14T09:13:28.453Z,33.45
2018-06-14T09:16:01.004Z,32.71
2018-06-14T09:18:32.864Z,33.42
2018-06-14T09:21:04.770Z,33.91
2018-06-14T09:23:37.806Z,34.30
2018-06-14T09:26:10.323Z,35.62
2018-06-14T09:28:42.696Z,33.38
2018-06-14T09:31:14.260Z,33.55
2018-06-14T09:33:45.350Z,33.27
2018-06-14T09:36:16.676Z,34.49
2018-06-14T09:38:47.851Z,32.68
2018-06-14T09:41:20.437Z,31.64
2018-06-14T09:43:52.742Z,31.71
2018-06-14T09:46:24.648Z,32.31
2018-06-14T09:49:00.946Z,32.34
2018-06-14T09:51:32.873Z,31.76
2018-06-14T09:54:05.089Z,33.22
2018-06-14T09:56:37.796Z,34.34
2018-06-14T09:59:09.813Z,35.34
2018-06-14T10:01:41.642Z,33.49
2018-06-14T10:04:12.803Z,33.03
2018-06-14T10:06:44.912Z,32.78
2018-06-14T10:09:17.381Z,30.98
2018-06-14T10:11:49.550Z,32.55
2018-06-14T10:14:20.816Z,30.26
2018-06-14T10:16:52.238Z,30.64
2018-06-14T10:19:23.332Z,30.54
2018-06-14T10:21:55.953Z,31.39
2018-06-14T10:24:27.730Z,29.60
2018-06-14T10:26:59.904Z,29.56
2018-06-14T10:29:32.423Z,29.99
2018-06-14T10:32:05.079Z,29.58
2018-06-14T10:34:36.903Z,29.41
2018-06-14T10:37:09.247Z,27.74
2018-06-14T10:39:40.927Z,29.19
2018-06-14T10:42:12.775Z,28.55
2018-06-14T10:44:45.468Z,30.79
2018-06-14T10:47:18.471Z,29.65
2018-06-14T10:49:52.194Z,28.23
2018-06-14T10:52:23.509Z,28.87
2018-06-14T10:54:54.855Z,30.39
2018-06-14T10:57:28.068Z,29.07
2018-06-14T11:00:00.215Z,28.38
2018-06-14T11:02:31.720Z,26.35
2018-06-14T11:05:03.814Z,27.27
2018-06-14T11:07:34.961Z,27.26
2018-06-14T11:10:06.655Z,28.38
2018-06-14T11:12:39.196Z,31.23
2018-06-14T11:15:11.181Z,30.45
2018-06-14T11:17:43.073Z,30.18
2018-06-14T11:20:14.803Z,29.09
2018-06-14T11:22:46.573Z,27.01
2018-06-14T11:25:20.441Z,26.39
2018-06-14T11:27:56.798Z,28.31
2018-06-14T11:30:32.339Z,28.51
2018-06-14T11:33:08.919Z,30.65
2018-06-14T11:35:41.184Z,32.98
2018-06-14T11:38:19.227Z,33.95
2018-06-14T11:40:51.978Z,34.10
2018-06-14T11:43:24.218Z,31.88
2018-06-14T11:45:56.144Z,30.14
2018-06-14T11:48:55.499Z,28.70
2018-06-14T11:51:30.252Z,29.71
2018-06-14T11:54:01.814Z,28.50
2018-06-14T11:56:34.289Z,30.54
2018-06-14T11:59:13.941Z,30.23
2018-06-14T12:01:49.071Z,31.92
2018-06-14T12:04:20.268Z,32.46
2018-06-14T12:06:56.543Z,32.44
2018-06-14T12:09:31.103Z,34.24
2018-06-14T12:12:04.949Z,34.51
2018-06-14T12:14:38.815Z,36.21
2018-06-14T12:17:10.187Z,36.14
2018-06-14T12:19:42.444Z,36.23
2018-06-14T12:22:15.980Z,35.90
2018-06-14T12:24:52.681Z,36.76
2018-06-14T12:27:23.835Z,36.58
2018-06-14T12:30:00.482Z,36.67
2018-06-14T12:32:34.815Z,35.98
2018-06-14T12:35:09.709Z,34.64
2018-06-14T12:37:42.539Z,35.46
2018-06-14T12:40:14.361Z,32.04
2018-06-14T12:42:45.665Z,32.88
2018-06-14T12:45:17.397Z,31.54
2018-06-14T12:47:59.466Z,31.79
2018-06-14T12:50:37.980Z,32.36
2018-06-14T12:53:14.893Z,33.13
2018-06-14T12:55:52.307Z,32.72
2018-06-14T12:58:27.632Z,32.27
2018-06-14T13:00:59.691Z,32.17
2018-06-14T13:03:33.590Z,31.90
2018-06-14T13:06:05.202Z,33.14
2018-06-14T13:08:36.967Z,32.63
2018-06-14T13:11:09.132Z,32.01
2018-06-14T13:13:40.220Z,31.12
2018-06-14T13:16:11.401Z,31.64
2018-06-14T13:18:42.699Z,31.01
2018-06-14T13:21:15.774Z,31.46
2018-06-14T13:23:46.908Z,31.67
2018-06-14T13:26:18.245Z,33.40
2018-06-14T13:28:52.407Z,33.33
2018-06-14T13:31:29.466Z,33.91
2018-06-14T13:34:01.966Z,33.67
2018-06-14T13:36:34.210Z,33.47
2018-06-14T13:39:08.419Z,31.09
2018-06-14T13:41:41.516Z,31.89
2018-06-14T13:44:12.431Z,29.43
2018-06-14T13:46:48.403Z,29.44
2018-06-14T13:49:20.857Z,29.73
2018-06-14T13:51:53.100Z,30.34
2018-06-14T13:54:27.048Z,32.25
2018-06-14T13:56:58.785Z,32.57
2018-06-14T13:59:30.262Z,31.68
2018-06-14T14:02:01.969Z,32.64
2018-06-14T14:04:33.752Z,32.35
2018-06-14T14:07:07.454Z,32.19
2018-06-14T14:09:39.971Z,32.17
2018-06-14T14:12:10.573Z,35.18
2018-06-14T14:14:42.041Z,35.16
2018-06-14T14:17:15.088Z,36.72
2018-06-14T14:19:46.414Z,34.74
2018-06-14T14:22:18.309Z,32.86
2018-06-14T14:24:50.919Z,32.88
2018-06-14T14:27:23.368Z,31.84
2018-06-14T14:29:54.891Z,32.72
2018-06-14T14:32:25.645Z,31.86
2018-06-14T14:34:56.306Z,31.75
2018-06-14T14:37:27.465Z,31.11
2018-06-14T14:39:59.842Z,31.93
2018-06-14T14:42:31.271Z,31.55
2018-06-14T14:45:03.930Z,30.80
2018-06-14T14:47:36.153Z,32.16
2018-06-14T14:50:07.430Z,32.71
2018-06-14T14:52:39.548Z,33.04
2018-06-14T14:55:11.503Z,33.87
2018-06-14T14:57:43.566Z,33.14
2018-06-14T15:00:16.715Z,33.52
2018-06-14T15:02:49.120Z,33.98
2018-06-14T15:05:21.017Z,32.81
2018-06-14T15:07:52.528Z,35.22
2018-06-14T15:10:24.432Z,36.02
2018-06-14T15:12:56.880Z,35.80
2018-06-14T15:15:28.490Z,37.17
2018-06-14T15:18:01.409Z,37.99
2018-06-14T15:20:34.156Z,37.77
2018-06-14T15:23:06.503Z,37.90
2018-06-14T15:25:37.270Z,38.92
2018-06-14T15:28:07.529Z,39.17
2018-06-14T15:30:39.174Z,38.80
2018-06-14T15:33:12.335Z,39.25
2018-06-14T15:35:43.409Z,40.46
2018-06-14T15:38:14.678Z,41.34
2018-06-14T15:40:46.344Z,41.60
2018-06-14T15:43:17.483Z,41.03
2018-06-14T15:45:49.644Z,41.64
2018-06-14T15:48:22.349Z,42.26
2018-06-14T15:50:54.487Z,43.35
2018-06-14T15:53:25.940Z,42.38
2018-06-14T15:56:19.955Z,43.31
2018-06-14T15:58:51.507Z,43.02
2018-06-14T16:01:23.657Z,42.85
2018-06-14T16:03:55.409Z,41.81
2018-06-14T16:06:29.969Z,40.74
2018-06-14T16:09:01.986Z,40.96
2018-06-14T16:11:34.488Z,39.86
2018-06-14T16:14:05.909Z,40.36
2018-06-14T16:16:39.006Z,39.94
2018-06-14T16:19:12.232Z,39.75
2018-06-14T16:21:44.577Z,41.13
2018-06-14T16:24:16.315Z,40.01
2018-06-14T16:26:48.420Z,39.59
2018-06-14T16:29:21.115Z,39.02
2018-06-14T16:31:53.201Z,39.86
2018-06-14T16:34:25.713Z,39.78
2018-06-14T16:37:02.823Z,40.34
2018-06-14T16:39:36.543Z,40.67
2018-06-14T16:42:10.564Z,41.53
2018-06-14T16:44:43.492Z,41.42
2018-06-14T16:47:15.452Z,41.71
2018-06-14T16:49:48.231Z,40.96
2018-06-14T16:52:19.879Z,41.11
2018-06-14T16:54:52.160Z,42.19
2018-06-14T16:57:23.922Z,42.68
2018-06-14T16:59:55.193Z,44.14
2018-06-14T17:02:29.011Z,45.48
2018-06-14T17:05:01.290Z,45.97
2018-06-14T17:07:32.988Z,46.06
2018-06-14T17:10:04.388Z,45.75
2018-06-14T17:12:35.805Z,46.00
2018-06-14T17:15:07.987Z,46.88
2018-06-14T17:17:39.360Z,47.88
2018-06-14T17:20:12.351Z,47.90
2018-06-14T17:22:44.256Z,48.25
2018-06-14T17:25:17.008Z,48.48
2018-06-14T17:27:49.899Z,49.47
2018-06-14T17:30:21.646Z,49.11
2018-06-14T17:32:52.740Z,49.21
2018-06-14T17:35:25.555Z,49.37
2018-06-14T17:37:57.228Z,50.41
2018-06-14T17:40:29.528Z,50.71
2018-06-14T17:43:01.650Z,50.37
2018-06-14T17:45:34.848Z,50.90
2018-06-14T17:48:07.614Z,50.86
2018-06-14T17:50:40.357Z,51.57
2018-06-14T17:53:11.970Z,52.06
2018-06-14T17:55:43.919Z,52.44
2018-06-14T17:58:16.934Z,52.86
2018-06-14T18:00:49.814Z,53.55
2018-06-14T18:03:23.554Z,54.51
2018-06-14T18:05:56.005Z,54.47
2018-06-14T18:08:28.907Z,55.40
2018-06-14T18:11:02.125Z,56.62
2018-06-14T18:13:36.523Z,57.45
2018-06-14T18:16:08.928Z,57.74
2018-06-14T18:18:41.611Z,58.33
2018-06-14T18:21:14.563Z,58.89
2018-06-14T18:23:47.399Z,59.48
2018-06-14T18:26:20.674Z,59.86
2018-06-14T18:28:54.286Z,60.63
2018-06-14T18:31:27.803Z,59.99
2018-06-14T18:34:00.474Z,60.53
2018-06-14T18:36:35.137Z,61.05
2018-06-14T18:39:11.818Z,61.57
2018-06-14T18:41:44.826Z,61.68
2018-06-14T18:44:18.375Z,61.48
2018-06-14T18:46:51.117Z,61.83
2018-06-14T18:49:24.896Z,62.41
2018-06-14T18:51:58.048Z,62.53
2018-06-14T18:54:31.080Z,62.86
2018-06-14T18:57:03.259Z,63.11
2018-06-14T18:59:35.493Z,63.17
2018-06-14T19:02:09.414Z,63.72
2018-06-14T19:04:43.574Z,64.63
2018-06-14T19:07:16.282Z,64.91
2018-06-14T19:09:50.186Z,65.82
2018-06-14T19:12:22.808Z,66.10
2018-06-14T19:14:55.969Z,66.48
2018-06-14T19:17:30.299Z,67.34
2018-06-14T19:20:03.891Z,66.71
2018-06-14T19:22:36.732Z,66.72
2018-06-14T19:25:10.652Z,66.42
2018-06-14T19:27:44.086Z,66.01
2018-06-14T19:30:18.459Z,65.74
2018-06-14T19:32:51.276Z,65.28
2018-06-14T19:35:24.099Z,65.84
2018-06-14T19:37:58.480Z,65.89
2018-06-14T19:40:31.720Z,65.35
2018-06-14T19:43:05.416Z,65.16
2018-06-14T19:45:38.761Z,65.99
2018-06-14T19:48:12.296Z,66.20
2018-06-14T19:50:45.494Z,66.94
2018-06-14T19:53:18.814Z,66.42
2018-06-14T19:55:53.322Z,65.99
2018-06-14T19:58:26.282Z,65.99
2018-06-14T20:00:58.278Z,64.33
2018-06-14T20:03:31.413Z,63.07
2018-06-14T20:06:04.524Z,62.99
2018-06-14T20:08:39.118Z,63.28
2018-06-14T20:11:12.391Z,63.68
2018-06-14T20:13:45.416Z,64.82
2018-06-14T20:16:18.692Z,64.50
2018-06-14T20:18:52.108Z,64.31
2018-06-14T20:21:26.794Z,65.26
2018-06-14T20:23:59.042Z,64.95
2018-06-14T20:26:34.230Z,64.92
2018-06-14T20:29:07.480Z,65.35
2018-06-14T20:31:41.135Z,65.11
2018-06-14T20:34:14.694Z,65.52
2018-06-14T20:36:47.995Z,65.21
2018-06-14T20:39:21.130Z,66.17
2018-06-14T20:41:55.236Z,67.34
2018-06-14T20:44:28.783Z,67.06
2018-06-14T20:47:02.992Z,66.86
2018-06-14T20:49:35.551Z,66.93
2018-06-14T20:52:09.332Z,67.19
2018-06-14T20:54:42.732Z,67.21
2018-06-14T20:57:15.853Z,67.23
2018-06-14T20:59:49.536Z,67.37
2018-06-14T21:02:22.277Z,67.78
2018-06-14T21:04:55.968Z,67.88
2018-06-14T21:07:29.376Z,67.82
2018-06-14T21:10:03.045Z,67.93
2018-06-14T21:12:35.894Z,67.53
2018-06-14T21:15:09.252Z,68.03
2018-06-14T21:17:41.279Z,68.22
2018-06-14T21:20:14.003Z,68.71
2018-06-14T21:22:48.096Z,69.02
2018-06-14T21:25:19.974Z,69.63
2018-06-14T21:27:51.599Z,69.59
2018-06-14T21:30:23.277Z,69.44
2018-06-14T21:32:54.918Z,70.24
2018-06-14T21:35:27.118Z,70.17
2018-06-14T21:38:00.278Z,70.75
2018-06-14T21:40:31.652Z,71.18
2018-06-14T21:43:03.419Z,71.22
2018-06-14T21:45:35.470Z,70.72
2018-06-14T21:48:07.619Z,70.90
2018-06-14T21:50:46.114Z,70.59
2018-06-14T21:53:19.500Z,70.99
2018-06-14T21:55:51.737Z,70.85
2018-06-14T21:58:23.136Z,70.39
2018-06-14T22:00:56.181Z,70.21
2018-06-14T22:03:33.040Z,70.43
2018-06-14T22:06:04.020Z,70.94
2018-06-14T22:08:35.105Z,70.72
2018-06-14T22:11:06.205Z,70.57
2018-06-14T22:13:37.759Z,71.06
2018-06-14T22:16:09.276Z,70.91
2018-06-14T22:18:40.400Z,70.84
2018-06-14T22:21:11.407Z,70.48
2018-06-14T22:23:44.027Z,70.74
2018-06-14T22:26:15.067Z,70.90
2018-06-14T22:28:45.958Z,71.28
2018-06-14T22:31:17.461Z,71.07
2018-06-14T22:34:04.922Z,71.66
2018-06-14T22:36:36.078Z,71.58
2018-06-14T22:39:08.934Z,71.62
2018-06-14T22:41:40.863Z,71.71
2018-06-14T22:44:11.733Z,71.83
2018-06-14T22:46:43.062Z,71.60
2018-06-14T22:49:14.446Z,71.83
2018-06-14T22:53:53.958Z,71.52
2018-06-14T22:56:25.280Z,72.47
2018-06-14T22:58:56.760Z,72.25
2018-06-14T23:01:35.321Z,73.60
2018-06-14T23:04:07.742Z,74.32
2018-06-14T23:06:40.362Z,75.11
2018-06-14T23:10:27.746Z,75.33
2018-06-14T23:12:59.015Z,74.82
2018-06-14T23:15:30.652Z,75.04
2018-06-14T23:18:02.084Z,74.96
2018-06-14T23:20:34.251Z,75.32
2018-06-14T23:23:06.818Z,74.93
2018-06-14T23:25:39.207Z,75.28
2018-06-14T23:28:10.667Z,76.07
2018-06-14T23:30:41.807Z,77.44
2018-06-14T23:33:13.046Z,77.82
2018-06-14T23:35:44.519Z,78.08
2018-06-14T23:38:15.538Z,78.03
2018-06-14T23:40:46.897Z,78.87
2018-06-14T23:43:19.199Z,79.09
2018-06-14T23:45:50.504Z,79.20
2018-06-14T23:48:21.488Z,79.86
2018-06-14T23:50:52.726Z,79.92
2018-06-14T23:53:23.836Z,80.11
2018-06-14T23:55:54.896Z,80.23
2018-06-14T23:58:25.914Z,80.24
